New Delhi, India

9:36 PM IST on September 04, 2015 (GMT +0530)
Indira Gandhi International | | Change Station
CLOSE
Current Station
Airport
Location: New Delhi,
Elevation: 764 ft
Nearby Weather Stations

Elev 764 ft 28.57 °N, 77.12 °E | Updated 36 minutes ago

Haze
Haze
90 °F
Feels Like 91 °F
N
6
Wind Variable Wind from NW

Today
High -- | Low -- °F
--% Chance of Precip.
Yesterday
High -- | Low -- °F
Precip. -- in
6:00 AM 6:40 PM
Waning Gibbous, 58% visible
Pressure 29.80 in
Visibility 2.5 miles
Clouds
Heat Index 91 °F
Dew Point 64 °F
Humidity 43%
Rainfall 0.00 in
Snow Depth Not available.
UV Not available.
Pollen Not available.
Air Quality Not available.
Flu Activity Not available.
METAR VIDP 041530Z 32005KT 4000 HZ NSC 32/18 Q1009 NOSIG
Pressure 29.80 in
Visibility 2.5 miles
Clouds
Heat Index 91 °F
Dew Point 64 °F
Humidity 43%
Rainfall 0.00 in
Snow Depth Not available.
UV Not available.
Pollen Not available.
Air Quality Not available.
Flu Activity Not available.
METAR VIDP 041530Z 32005KT 4000 HZ NSC 32/18 Q1009 NOSIG

10-Day Weather Forecast

×

Almanac

Astronomy

Sep. 04, 2015 Rise Set
Actual Time
Civil Twilight
Nautical Twilight
Astronomical Twilight
Moon
Length of Visible Light
Length of Day
Tomorrow will be .
, % of the Moon is Illuminated

Today's Extremes

Country Highs Country Lows

Community

WunderPhotos

Upload Photos

1,852,210 photos uploaded!

WunderBlogs® & News

Nearby

Air Quality

  Air Quality AQ Index Pollutant
Not available.

Snow Depth

Station Depth Elevation

Earthquake Activity

City Distance Mag. Time & Date
Minimum magnitude displayed is 2.5.

Coastal Water Temperatures

Place Temperature

Stations

Nearby Weather Stations

Station Location Temp. Windchill Dew Point Humidity Wind Precip. Elev Updated Type